createdAt,value
2017-09-04T00:00:12.939Z,7.70
2017-09-04T00:02:41.291Z,6.90
2017-09-04T00:05:09.622Z,6.43
2017-09-04T00:07:37.982Z,5.10
2017-09-04T00:10:06.408Z,6.83
2017-09-04T00:12:34.795Z,8.07
2017-09-04T00:15:03.147Z,7.87
2017-09-04T00:17:31.571Z,5.83
2017-09-04T00:19:59.898Z,6.57
2017-09-04T00:22:28.459Z,7.43
2017-09-04T00:24:57.042Z,6.70
2017-09-04T00:27:25.366Z,7.60
2017-09-04T00:29:53.734Z,5.67
2017-09-04T00:32:22.132Z,5.57
2017-09-04T00:34:50.942Z,6.60
2017-09-04T00:37:19.270Z,6.50
2017-09-04T00:39:47.599Z,9.13
2017-09-04T00:42:15.951Z,9.40
2017-09-04T00:44:44.386Z,10.83
2017-09-04T00:47:12.751Z,6.00
2017-09-04T00:49:41.182Z,6.30
2017-09-04T00:52:09.511Z,10.97
2017-09-04T00:54:37.883Z,10.30
2017-09-04T00:57:06.251Z,7.10
2017-09-04T00:59:34.603Z,6.73
2017-09-04T01:02:03.087Z,7.00
2017-09-04T01:04:31.447Z,6.70
2017-09-04T01:06:59.802Z,6.53
2017-09-04T01:09:28.199Z,6.80
2017-09-04T01:11:56.562Z,7.57
2017-09-04T01:14:24.900Z,9.63
2017-09-04T01:16:53.267Z,8.20
2017-09-04T01:19:21.631Z,10.13
2017-09-04T01:21:49.964Z,7.17
2017-09-04T01:24:18.343Z,7.40
2017-09-04T01:26:46.764Z,7.73
2017-09-04T01:29:15.101Z,10.67
2017-09-04T01:31:43.466Z,6.93
2017-09-04T01:34:11.794Z,7.23
2017-09-04T01:36:40.127Z,6.87
2017-09-04T01:39:08.474Z,9.33
2017-09-04T01:41:36.803Z,6.47
2017-09-04T01:44:05.172Z,6.77
2017-09-04T01:46:33.543Z,8.43
2017-09-04T01:49:01.954Z,6.93
2017-09-04T01:51:30.342Z,8.83
2017-09-04T01:53:58.735Z,8.90
2017-09-04T01:56:27.132Z,10.20
2017-09-04T01:58:55.463Z,7.60
2017-09-04T02:01:23.823Z,9.03
2017-09-04T02:03:52.203Z,7.73
2017-09-04T02:06:20.539Z,11.13
2017-09-04T02:08:48.978Z,7.13
2017-09-04T02:11:17.334Z,8.20
2017-09-04T02:13:45.758Z,9.10
2017-09-04T02:16:14.119Z,8.90
2017-09-04T02:18:42.447Z,8.43
2017-09-04T02:21:10.848Z,10.63
2017-09-04T02:23:39.174Z,9.03
2017-09-04T02:26:07.552Z,7.60
2017-09-04T02:28:35.902Z,7.47
2017-09-04T02:31:04.261Z,10.43
2017-09-04T02:33:32.595Z,8.50
2017-09-04T02:36:00.986Z,12.60
2017-09-04T02:38:29.335Z,12.53
2017-09-04T02:40:57.763Z,12.40
2017-09-04T02:43:26.534Z,8.80
2017-09-04T02:45:54.916Z,12.80
2017-09-04T02:48:23.263Z,10.23
2017-09-04T02:50:51.628Z,9.90
2017-09-04T02:53:20.007Z,11.10
2017-09-04T02:55:48.334Z,8.73
2017-09-04T02:58:16.668Z,10.47
2017-09-04T03:00:45.014Z,10.60
2017-09-04T03:03:13.385Z,9.60
2017-09-04T03:05:41.715Z,8.97
2017-09-04T03:08:10.093Z,10.40
2017-09-04T03:10:38.419Z,10.43
2017-09-04T03:13:06.750Z,11.03
2017-09-04T03:15:35.144Z,14.30
2017-09-04T03:18:03.471Z,11.73
2017-09-04T03:20:31.948Z,12.83
2017-09-04T03:23:00.311Z,21.57
2017-09-04T03:25:28.707Z,11.10
2017-09-04T03:27:57.238Z,14.27
2017-09-04T03:30:25.618Z,17.97
2017-09-04T03:32:53.951Z,17.63
2017-09-04T03:35:22.376Z,16.33
2017-09-04T03:37:50.713Z,16.17
2017-09-04T03:40:19.075Z,12.43
2017-09-04T03:42:47.415Z,12.80
2017-09-04T03:45:15.864Z,16.87
2017-09-04T03:47:44.227Z,20.03
2017-09-04T03:50:12.570Z,17.17
2017-09-04T03:52:40.931Z,12.10
2017-09-04T03:55:09.276Z,17.90
2017-09-04T03:57:37.627Z,14.90
2017-09-04T04:00:06.147Z,16.10
2017-09-04T04:02:34.522Z,15.17
2017-09-04T04:05:02.902Z,16.23
2017-09-04T04:07:31.363Z,19.13
2017-09-04T04:09:59.877Z,13.17
2017-09-04T04:12:28.235Z,15.57
2017-09-04T04:14:56.646Z,14.73
2017-09-04T04:17:24.990Z,17.87
2017-09-04T04:19:53.366Z,15.47
2017-09-04T04:22:21.810Z,15.70
2017-09-04T04:24:50.199Z,15.50
2017-09-04T04:27:18.547Z,17.37
2017-09-04T04:29:47.008Z,13.67
2017-09-04T04:32:15.396Z,17.63
2017-09-04T04:34:43.739Z,15.17
2017-09-04T04:37:12.151Z,14.87
2017-09-04T04:39:40.547Z,19.23
2017-09-04T04:42:08.891Z,17.60
2017-09-04T04:44:37.331Z,16.93
2017-09-04T04:47:05.718Z,18.77
2017-09-04T04:49:34.063Z,15.93
2017-09-04T04:52:02.443Z,19.73
2017-09-04T04:54:30.810Z,21.77
2017-09-04T04:56:59.158Z,21.63
2017-09-04T04:59:27.595Z,30.07
2017-09-04T05:01:56.067Z,23.20
2017-09-04T05:04:24.443Z,19.07
2017-09-04T05:06:52.851Z,21.20
2017-09-04T05:09:21.373Z,20.40
2017-09-04T05:11:49.714Z,21.90
2017-09-04T05:14:18.130Z,18.20
2017-09-04T05:16:46.478Z,20.33
2017-09-04T05:19:14.855Z,25.47
2017-09-04T05:21:43.314Z,26.70
2017-09-04T05:24:11.655Z,22.77
2017-09-04T05:26:40.020Z,30.30
2017-09-04T05:29:08.377Z,20.30
2017-09-04T05:31:36.742Z,25.73
2017-09-04T05:34:05.114Z,22.17
2017-09-04T05:36:33.487Z,25.73
2017-09-04T05:39:01.916Z,24.63
2017-09-04T05:41:30.254Z,23.23
2017-09-04T05:43:58.635Z,24.93
2017-09-04T05:46:27.823Z,28.90
2017-09-04T05:48:56.161Z,23.10
2017-09-04T05:51:24.507Z,23.50
2017-09-04T05:53:52.860Z,28.20
2017-09-04T05:56:21.247Z,17.23
2017-09-04T05:58:49.683Z,24.07
2017-09-04T06:01:18.099Z,18.60
2017-09-04T06:03:46.436Z,22.10
2017-09-04T06:06:14.810Z,23.97
2017-09-04T06:08:43.159Z,42.37
2017-09-04T06:11:11.534Z,23.67
2017-09-04T06:13:39.875Z,24.63
2017-09-04T06:16:08.314Z,23.87
2017-09-04T06:18:36.703Z,23.70
2017-09-04T06:21:05.047Z,16.43
2017-09-04T06:23:33.518Z,14.50
2017-09-04T06:26:01.891Z,18.50
2017-09-04T06:28:30.279Z,22.20
2017-09-04T06:30:58.628Z,19.10
2017-09-04T06:33:27.054Z,23.87
2017-09-04T06:35:55.447Z,24.33
2017-09-04T06:38:23.823Z,17.03
2017-09-04T06:40:52.206Z,19.80
2017-09-04T06:43:20.627Z,22.70
2017-09-04T06:45:49.041Z,21.70
2017-09-04T06:48:17.383Z,14.33
2017-09-04T06:50:45.723Z,14.70
2017-09-04T06:53:14.286Z,12.30
2017-09-04T06:55:42.630Z,10.03
2017-09-04T06:58:11.067Z,23.37
2017-09-04T07:00:39.411Z,15.63
2017-09-04T07:03:08.258Z,9.47
2017-09-04T07:05:37.062Z,14.43
2017-09-04T07:08:05.451Z,8.03
2017-09-04T07:10:33.851Z,13.17
2017-09-04T07:13:02.391Z,11.83
2017-09-04T07:15:30.726Z,13.20
2017-09-04T07:17:59.070Z,11.40
2017-09-04T07:20:27.442Z,16.23
2017-09-04T07:22:56.054Z,13.17
2017-09-04T07:25:24.410Z,13.07
2017-09-04T07:27:52.758Z,12.47
2017-09-04T07:30:21.102Z,10.60
2017-09-04T07:32:49.574Z,9.30
2017-09-04T07:35:17.915Z,10.07
2017-09-04T07:37:46.286Z,9.07
2017-09-04T07:40:14.648Z,11.63
2017-09-04T07:42:43.035Z,8.43
2017-09-04T07:45:11.383Z,10.23
2017-09-04T07:47:39.790Z,9.50
2017-09-04T07:50:08.530Z,10.00
2017-09-04T07:52:36.921Z,8.37
2017-09-04T07:55:05.305Z,10.43
2017-09-04T07:57:33.669Z,8.67
2017-09-04T08:00:01.998Z,6.70
2017-09-04T08:02:30.360Z,6.00
2017-09-04T08:04:58.763Z,8.67
2017-09-04T08:07:27.102Z,6.93
2017-09-04T08:09:55.450Z,8.40
2017-09-04T08:12:23.839Z,7.23
2017-09-04T08:14:52.199Z,6.10
2017-09-04T08:17:20.630Z,6.30
2017-09-04T08:19:48.987Z,6.97
2017-09-04T08:22:17.334Z,6.67
2017-09-04T08:24:45.815Z,6.00
2017-09-04T08:27:14.190Z,6.63
2017-09-04T08:29:42.523Z,5.70
2017-09-04T08:32:10.866Z,6.87
2017-09-04T08:34:39.219Z,5.67
2017-09-04T08:37:07.642Z,4.70
2017-09-04T08:39:35.978Z,5.37
2017-09-04T08:42:04.335Z,4.93
2017-09-04T08:44:32.671Z,6.93
2017-09-04T08:47:01.211Z,6.23
2017-09-04T08:49:29.549Z,5.20
2017-09-04T08:51:57.990Z,10.23
2017-09-04T08:54:26.335Z,5.10
2017-09-04T08:56:54.772Z,8.23
2017-09-04T08:59:23.274Z,4.70
2017-09-04T09:01:51.662Z,4.90
2017-09-04T09:04:20.082Z,5.33
2017-09-04T09:06:48.431Z,4.43
2017-09-04T09:09:16.830Z,3.77
2017-09-04T09:11:45.560Z,4.23
2017-09-04T09:14:13.887Z,5.00
2017-09-04T09:16:42.323Z,4.30
2017-09-04T09:19:10.651Z,4.10
2017-09-04T09:21:38.978Z,3.93
2017-09-04T09:24:07.355Z,3.60
2017-09-04T09:26:35.695Z,4.10
2017-09-04T09:29:04.084Z,5.23
2017-09-04T09:31:32.435Z,4.83
2017-09-04T09:34:00.779Z,4.13
2017-09-04T09:36:29.116Z,4.90
2017-09-04T09:38:57.471Z,5.93
2017-09-04T09:41:25.927Z,4.03
2017-09-04T09:43:54.318Z,4.63
2017-09-04T09:46:22.711Z,4.70
2017-09-04T09:48:51.078Z,5.60
2017-09-04T09:51:19.420Z,10.00
2017-09-04T09:53:47.774Z,4.20
2017-09-04T09:56:16.124Z,4.70
2017-09-04T09:58:44.466Z,5.63
2017-09-04T10:01:12.831Z,4.67
2017-09-04T10:03:41.165Z,5.67
2017-09-04T10:06:09.856Z,4.60
2017-09-04T10:08:38.196Z,3.80
2017-09-04T10:11:06.559Z,3.50
2017-09-04T10:13:34.887Z,4.40
2017-09-04T10:16:03.252Z,2.60
2017-09-04T10:18:31.585Z,2.70
2017-09-04T10:20:59.943Z,2.80
2017-09-04T10:23:28.306Z,3.20
2017-09-04T10:25:56.669Z,2.60
2017-09-04T10:28:25.006Z,3.17
2017-09-04T10:30:53.367Z,2.57
2017-09-04T10:33:21.695Z,2.93
2017-09-04T10:35:50.059Z,3.10
2017-09-04T10:38:18.393Z,2.80
2017-09-04T10:40:46.762Z,3.03
2017-09-04T10:43:15.090Z,3.30
2017-09-04T10:45:43.426Z,4.93
2017-09-04T10:48:11.759Z,3.80
2017-09-04T10:50:40.260Z,8.40
2017-09-04T10:53:08.595Z,4.80
2017-09-04T10:55:36.927Z,3.60
2017-09-04T10:58:05.330Z,3.13
2017-09-04T11:00:33.711Z,4.07
2017-09-04T11:03:02.131Z,4.00
2017-09-04T11:05:30.462Z,2.80
2017-09-04T11:07:58.827Z,5.13
2017-09-04T11:10:27.170Z,3.00
2017-09-04T11:12:55.565Z,3.97
2017-09-04T11:15:25.439Z,3.43
2017-09-04T11:17:53.828Z,4.97
2017-09-04T11:20:22.399Z,3.83
2017-09-04T11:22:50.739Z,5.37
2017-09-04T11:25:19.090Z,4.10
2017-09-04T11:27:47.427Z,5.40
2017-09-04T11:30:15.758Z,3.87
2017-09-04T11:32:44.120Z,3.87
2017-09-04T11:35:12.472Z,3.93
2017-09-04T11:37:41.063Z,3.43
2017-09-04T11:40:09.395Z,4.93
2017-09-04T11:42:37.727Z,3.13
2017-09-04T11:45:06.071Z,2.47
2017-09-04T11:47:34.416Z,2.70
2017-09-04T11:50:02.893Z,2.80
2017-09-04T11:52:31.218Z,4.00
2017-09-04T11:54:59.591Z,3.30
2017-09-04T11:57:27.953Z,2.70
2017-09-04T11:59:56.286Z,3.27
2017-09-04T12:02:24.631Z,2.63
2017-09-04T12:04:52.995Z,3.83
2017-09-04T12:07:21.335Z,2.73
2017-09-04T12:09:49.719Z,3.30
2017-09-04T12:12:18.066Z,2.93
2017-09-04T12:14:46.398Z,3.93
2017-09-04T12:17:14.730Z,5.27
2017-09-04T12:19:43.069Z,3.47
2017-09-04T12:22:11.571Z,4.83
2017-09-04T12:24:39.911Z,4.07
2017-09-04T12:27:08.246Z,4.53
2017-09-04T12:29:36.579Z,3.57
2017-09-04T12:32:04.965Z,5.63
2017-09-04T12:34:33.314Z,7.63
2017-09-04T12:37:01.654Z,3.83
2017-09-04T12:39:30.024Z,4.30
2017-09-04T12:41:58.495Z,3.00
2017-09-04T12:44:26.860Z,3.17
2017-09-04T12:46:55.219Z,5.27
2017-09-04T12:49:23.555Z,3.73
2017-09-04T12:51:51.954Z,3.43
2017-09-04T12:54:20.303Z,4.07
2017-09-04T12:56:48.676Z,2.87
2017-09-04T12:59:17.007Z,2.80
2017-09-04T13:01:45.538Z,4.00
2017-09-04T13:04:14.620Z,4.33
2017-09-04T13:06:43.021Z,4.47
2017-09-04T13:09:11.407Z,4.03
2017-09-04T13:15:03.558Z,6.30
2017-09-04T13:20:40.442Z,2.40
2017-09-04T13:23:14.530Z,2.90
2017-09-04T13:25:48.650Z,3.30
2017-09-04T13:31:31.315Z,4.17
2017-09-04T13:34:05.234Z,2.97
2017-09-04T13:36:39.075Z,2.93
2017-09-04T13:39:13.120Z,3.63
2017-09-04T13:41:47.051Z,2.67
2017-09-04T13:44:21.154Z,4.10
2017-09-04T13:50:00.762Z,3.17
2017-09-04T13:55:44.575Z,3.30
2017-09-04T13:58:18.410Z,3.33
2017-09-04T14:00:52.355Z,2.73
2017-09-04T14:03:21.640Z,3.70
2017-09-04T14:05:55.485Z,3.10
2017-09-04T14:08:38.730Z,7.00
2017-09-04T14:14:15.780Z,4.00
2017-09-04T14:16:49.646Z,5.57
2017-09-04T14:19:18.010Z,4.53
2017-09-04T14:21:46.387Z,4.73
2017-09-04T14:24:14.715Z,4.23
2017-09-04T14:26:43.050Z,4.07
2017-09-04T14:29:11.470Z,3.63
2017-09-04T14:31:39.827Z,4.40
2017-09-04T14:34:08.166Z,4.53
2017-09-04T14:36:36.531Z,6.53
2017-09-04T14:39:04.863Z,7.40
2017-09-04T14:41:33.199Z,4.67
2017-09-04T14:47:00.496Z,4.83
2017-09-04T14:49:28.869Z,4.53
2017-09-04T14:51:57.279Z,4.20
2017-09-04T14:54:25.598Z,4.60
2017-09-04T14:56:53.975Z,5.03
2017-09-04T14:59:22.306Z,3.87
2017-09-04T15:01:50.670Z,6.17
2017-09-04T15:04:19.026Z,2.87
2017-09-04T15:06:47.390Z,2.67
2017-09-04T15:09:15.723Z,3.00
2017-09-04T15:11:44.087Z,3.00
2017-09-04T15:14:12.724Z,3.10
2017-09-04T15:16:41.115Z,3.30
2017-09-04T15:19:09.451Z,3.30
2017-09-04T15:21:37.795Z,2.90
2017-09-04T15:24:06.158Z,3.10
2017-09-04T15:26:34.511Z,2.30
2017-09-04T15:29:03.258Z,3.13
2017-09-04T15:31:31.587Z,3.50
2017-09-04T15:33:59.958Z,2.77
2017-09-04T15:36:28.299Z,3.07
2017-09-04T15:38:56.628Z,2.60
2017-09-04T15:41:24.987Z,2.60
2017-09-04T15:43:53.386Z,2.80
2017-09-04T15:46:21.718Z,2.63
2017-09-04T15:48:50.046Z,2.67
2017-09-04T15:51:18.382Z,3.17
2017-09-04T15:53:46.866Z,3.23
2017-09-04T15:56:15.198Z,3.50
2017-09-04T15:58:43.538Z,3.30
2017-09-04T16:01:11.894Z,2.70
2017-09-04T16:03:40.227Z,3.33
2017-09-04T16:06:11.033Z,3.03
2017-09-04T16:08:39.390Z,3.33
2017-09-04T16:11:07.748Z,4.47
2017-09-04T16:13:39.654Z,3.67
2017-09-04T16:16:08.695Z,2.97
2017-09-04T16:21:40.182Z,7.23
2017-09-04T16:27:16.518Z,3.40
2017-09-04T16:29:48.923Z,3.63
2017-09-04T16:32:19.696Z,3.07
2017-09-04T16:37:57.954Z,3.63
2017-09-04T16:40:26.283Z,3.67
2017-09-04T16:42:54.618Z,3.57
2017-09-04T16:48:45.439Z,2.90
2017-09-04T16:54:23.126Z,4.00
2017-09-04T16:57:06.371Z,4.80
2017-09-04T16:59:34.795Z,5.83
2017-09-04T17:02:03.271Z,4.10
2017-09-04T17:04:31.603Z,4.73
2017-09-04T17:06:59.940Z,3.67
2017-09-04T17:09:28.582Z,4.10
2017-09-04T17:11:56.941Z,15.30
2017-09-04T17:14:25.326Z,3.80
2017-09-04T17:16:53.666Z,3.97
2017-09-04T17:19:26.634Z,4.00
2017-09-04T17:22:12.129Z,6.10
2017-09-04T17:24:45.312Z,4.03
2017-09-04T17:27:13.674Z,4.10
2017-09-04T17:29:42.018Z,5.03
2017-09-04T17:32:10.380Z,4.57
2017-09-04T17:34:38.720Z,4.27
2017-09-04T17:37:07.057Z,5.90
2017-09-04T17:39:35.390Z,8.50
2017-09-04T17:42:03.744Z,4.70
2017-09-04T17:44:32.103Z,5.20
2017-09-04T17:47:00.458Z,4.50
2017-09-04T17:49:28.924Z,6.90
2017-09-04T17:51:57.275Z,4.07
2017-09-04T17:54:25.615Z,4.50
2017-09-04T17:56:53.942Z,6.17
2017-09-04T17:59:22.311Z,6.20
2017-09-04T18:01:50.710Z,8.33
2017-09-04T18:04:19.065Z,5.37
2017-09-04T18:06:47.401Z,5.73
2017-09-04T18:09:15.738Z,5.00
2017-09-04T18:11:44.115Z,6.90
2017-09-04T18:14:12.454Z,4.10
2017-09-04T18:16:40.791Z,4.77
2017-09-04T18:19:09.158Z,5.43
2017-09-04T18:21:37.498Z,6.10
2017-09-04T18:24:05.851Z,7.83
2017-09-04T18:26:34.234Z,4.67
2017-09-04T18:29:02.573Z,5.60
2017-09-04T18:31:30.922Z,6.77
2017-09-04T18:33:59.263Z,10.77
2017-09-04T18:36:27.627Z,6.10
2017-09-04T18:38:55.959Z,5.87
2017-09-04T18:41:24.323Z,6.93
2017-09-04T18:43:53.047Z,9.37
2017-09-04T18:46:21.378Z,5.77
2017-09-04T18:48:49.869Z,8.73
2017-09-04T18:51:18.195Z,7.00
2017-09-04T18:53:46.531Z,5.63
2017-09-04T18:56:14.902Z,6.70
2017-09-04T18:58:43.234Z,6.87
2017-09-04T19:01:11.579Z,7.57
2017-09-04T19:03:39.919Z,6.33
2017-09-04T19:06:08.286Z,5.80
2017-09-04T19:08:36.620Z,7.27
2017-09-04T19:11:05.014Z,6.30
2017-09-04T19:13:33.371Z,6.17
2017-09-04T19:16:02.058Z,8.40
2017-09-04T19:18:30.431Z,7.90
2017-09-04T19:20:58.767Z,7.57
2017-09-04T19:23:27.105Z,7.13
2017-09-04T19:25:55.434Z,7.53
2017-09-04T19:28:23.801Z,9.03
2017-09-04T19:30:52.174Z,6.43
2017-09-04T19:33:20.511Z,5.80
2017-09-04T19:35:48.878Z,11.90
2017-09-04T19:38:17.246Z,9.40
2017-09-04T19:40:45.586Z,7.87
2017-09-04T19:43:13.922Z,8.63
2017-09-04T19:45:42.258Z,9.30
2017-09-04T19:48:10.651Z,6.13
2017-09-04T19:50:39.030Z,6.67
2017-09-04T19:53:07.392Z,6.10
2017-09-04T19:55:35.753Z,8.43
2017-09-04T19:58:04.090Z,7.00
2017-09-04T20:00:32.460Z,7.17
2017-09-04T20:03:00.786Z,9.40
2017-09-04T20:05:29.125Z,8.60
2017-09-04T20:07:57.497Z,7.97
2017-09-04T20:10:25.827Z,6.97
2017-09-04T20:12:54.162Z,5.77
2017-09-04T20:15:22.524Z,7.63
2017-09-04T20:17:50.868Z,12.83
2017-09-04T20:20:19.223Z,6.27
2017-09-04T20:22:47.587Z,14.43
2017-09-04T20:25:15.936Z,11.13
2017-09-04T20:27:44.268Z,7.70
2017-09-04T20:30:12.683Z,6.50
2017-09-04T20:32:41.014Z,6.90
2017-09-04T20:35:09.484Z,7.80
2017-09-04T20:37:37.826Z,8.13
2017-09-04T20:40:06.182Z,11.20
2017-09-04T20:42:34.523Z,9.97
2017-09-04T20:45:02.957Z,9.60
2017-09-04T20:47:31.423Z,10.80
2017-09-04T20:49:59.754Z,9.57
2017-09-04T20:52:28.123Z,8.93
2017-09-04T20:54:56.454Z,8.80
2017-09-04T20:57:24.790Z,8.27
2017-09-04T20:59:53.129Z,10.20
2017-09-04T21:02:21.511Z,11.00
2017-09-04T21:04:49.851Z,9.10
2017-09-04T21:07:18.210Z,8.00
2017-09-04T21:09:46.578Z,8.37
2017-09-04T21:12:14.971Z,7.93
2017-09-04T21:14:43.335Z,12.10
2017-09-04T21:17:11.671Z,11.93
2017-09-04T21:19:40.015Z,10.43
2017-09-04T21:22:08.379Z,8.60
2017-09-04T21:24:36.728Z,10.67
2017-09-04T21:27:05.271Z,11.13
2017-09-04T21:29:33.611Z,10.40
2017-09-04T21:32:01.951Z,10.83
2017-09-04T21:34:31.054Z,15.43
2017-09-04T21:36:59.398Z,8.97
2017-09-04T21:39:27.775Z,10.30
2017-09-04T21:41:56.368Z,10.40
2017-09-04T21:44:25.071Z,10.47
2017-09-04T21:46:53.561Z,10.43
2017-09-04T21:49:21.943Z,11.10
2017-09-04T21:51:50.311Z,8.70
2017-09-04T21:54:19.439Z,9.20
2017-09-04T21:56:48.961Z,9.70
2017-09-04T21:59:18.358Z,12.20
2017-09-04T22:01:47.682Z,10.50
2017-09-04T22:04:16.638Z,10.00
2017-09-04T22:06:45.993Z,8.73
2017-09-04T22:09:15.341Z,14.00
2017-09-04T22:11:43.868Z,11.40
2017-09-04T22:14:13.207Z,9.03
2017-09-04T22:16:42.187Z,12.27
2017-09-04T22:19:11.639Z,16.13
2017-09-04T22:21:41.020Z,12.40
2017-09-04T22:24:10.432Z,13.83
2017-09-04T22:26:39.355Z,11.27
2017-09-04T22:29:08.299Z,9.20
2017-09-04T22:31:37.295Z,12.50
2017-09-04T22:34:06.254Z,10.00
2017-09-04T22:36:34.851Z,9.73
2017-09-04T22:39:04.608Z,9.37
2017-09-04T22:41:34.193Z,9.73
2017-09-04T22:44:03.150Z,10.93
2017-09-04T22:46:31.882Z,10.17
2017-09-04T22:49:00.861Z,11.83
2017-09-04T22:51:29.429Z,8.30
2017-09-04T22:53:58.252Z,9.53
2017-09-04T22:56:27.139Z,11.27
2017-09-04T22:59:06.687Z,10.20
2017-09-04T23:01:35.510Z,9.30
2017-09-04T23:04:04.133Z,8.87
2017-09-04T23:06:32.574Z,10.90
2017-09-04T23:09:02.011Z,14.23
2017-09-04T23:11:31.919Z,12.40
2017-09-04T23:14:01.255Z,10.40
2017-09-04T23:16:29.723Z,12.00
2017-09-04T23:18:59.055Z,11.73
2017-09-04T23:21:28.298Z,14.47
2017-09-04T23:23:56.964Z,10.47
2017-09-04T23:26:26.176Z,12.23
2017-09-04T23:28:55.646Z,9.73
2017-09-04T23:31:24.605Z,11.07
2017-09-04T23:33:53.508Z,11.93
2017-09-04T23:36:23.048Z,11.20
2017-09-04T23:38:52.477Z,14.23
2017-09-04T23:41:22.046Z,10.27
2017-09-04T23:43:51.068Z,14.03
2017-09-04T23:46:20.168Z,30.90
2017-09-04T23:48:49.378Z,11.97
2017-09-04T23:51:17.851Z,10.03
2017-09-04T23:53:46.712Z,10.43
2017-09-04T23:56:16.025Z,11.40
2017-09-04T23:58:45.412Z,9.90
